createdAt,value
2019-03-27T00:01:17.396Z,99662.91
2019-03-27T00:03:50.972Z,99662.98
2019-03-27T00:06:24.518Z,99659.94
2019-03-27T00:08:57.074Z,99660.02
2019-03-27T00:11:30.261Z,99663.09
2019-03-27T00:14:04.050Z,99659.41
2019-03-27T00:16:36.078Z,99660.66
2019-03-27T00:19:09.232Z,99663.09
2019-03-27T00:21:42.158Z,99652.77
2019-03-27T00:24:14.417Z,99659.80
2019-03-27T00:26:49.138Z,99664.42
2019-03-27T00:29:21.073Z,99665.81
2019-03-27T00:31:54.156Z,99658.25
2019-03-27T00:34:26.953Z,99662.16
2019-03-27T00:36:59.254Z,99654.02
2019-03-27T00:39:32.940Z,99657.82
2019-03-27T00:42:07.260Z,99659.55
2019-03-27T00:44:40.569Z,99655.77
2019-03-27T00:47:16.781Z,99660.58
2019-03-27T00:49:51.348Z,99667.93
2019-03-27T00:52:24.121Z,99664.16
2019-03-27T00:54:58.360Z,99661.03
2019-03-27T00:57:33.239Z,99655.85
2019-03-27T01:00:08.861Z,99664.22
2019-03-27T01:02:42.296Z,99662.36
2019-03-27T01:05:16.632Z,99667.45
2019-03-27T01:07:48.579Z,99683.91
2019-03-27T01:10:21.334Z,99669.20
2019-03-27T01:12:54.345Z,99678.09
2019-03-27T01:15:39.129Z,99671.15
2019-03-27T01:18:03.335Z,99681.95
2019-03-27T01:20:36.263Z,99686.86
2019-03-27T01:23:09.456Z,99683.96
2019-03-27T01:25:46.245Z,99696.66
2019-03-27T01:28:18.768Z,99704.44
2019-03-27T01:30:53.389Z,99710.13
2019-03-27T01:33:29.265Z,99710.75
2019-03-27T01:36:02.749Z,99715.50
2019-03-27T01:38:36.299Z,99710.27
2019-03-27T01:41:09.682Z,99703.63
2019-03-27T01:43:43.518Z,99709.22
2019-03-27T01:46:18.792Z,99706.33
2019-03-27T01:49:02.975Z,99710.81
2019-03-27T01:51:36.656Z,99702.17
2019-03-27T01:54:08.558Z,99708.88
2019-03-27T01:56:40.488Z,99709.25
2019-03-27T01:59:13.577Z,99719.08
2019-03-27T02:01:47.459Z,99720.11
2019-03-27T02:04:20.904Z,99721.30
2019-03-27T02:06:55.529Z,99720.86
2019-03-27T02:09:27.620Z,99722.98
2019-03-27T02:12:01.153Z,99729.67
2019-03-27T02:14:33.512Z,99726.06
2019-03-27T02:17:06.666Z,99731.27
2019-03-27T02:19:39.668Z,99724.84
2019-03-27T02:22:13.169Z,99727.16
2019-03-27T02:24:49.264Z,99726.31
2019-03-27T02:27:21.184Z,99725.32
2019-03-27T02:29:54.578Z,99729.29
2019-03-27T02:32:27.694Z,99724.37
2019-03-27T02:35:01.712Z,99734.48
2019-03-27T02:37:33.676Z,99729.77
2019-03-27T02:40:07.662Z,99732.11
2019-03-27T02:42:39.656Z,99734.35
2019-03-27T02:45:14.398Z,99728.47
2019-03-27T02:47:47.910Z,99728.80
2019-03-27T02:50:21.027Z,99731.55
2019-03-27T02:52:57.404Z,99734.72
2019-03-27T02:55:30.907Z,99733.86
2019-03-27T02:58:02.754Z,99739.74
2019-03-27T03:00:37.705Z,99742.95
2019-03-27T03:03:10.901Z,99740.47
2019-03-27T03:05:44.834Z,99741.25
2019-03-27T03:08:17.930Z,99703.09
2019-03-27T03:10:52.373Z,99750.39
2019-03-27T03:13:24.956Z,99758.02
2019-03-27T03:15:56.854Z,99761.66
2019-03-27T03:18:29.894Z,99770.04
2019-03-27T03:21:02.222Z,99761.90
2019-03-27T03:23:35.872Z,99770.09
2019-03-27T03:26:08.933Z,99764.62
2019-03-27T03:28:41.959Z,99770.81
2019-03-27T03:31:14.020Z,99769.52
2019-03-27T03:33:45.965Z,99766.03
2019-03-27T03:36:17.891Z,99766.52
2019-03-27T03:38:51.807Z,99773.73
2019-03-27T03:41:24.006Z,99763.67
2019-03-27T03:43:58.175Z,99766.44
2019-03-27T03:46:32.949Z,99773.44
2019-03-27T03:49:07.261Z,99771.64
2019-03-27T03:51:39.583Z,99769.69
2019-03-27T03:54:12.542Z,99770.41
2019-03-27T03:56:46.040Z,99765.03
2019-03-27T03:59:22.313Z,99763.97
2019-03-27T04:02:01.666Z,99772.83
2019-03-27T04:04:37.780Z,99765.28
2019-03-27T04:07:11.250Z,99770.27
2019-03-27T04:09:43.720Z,99769.72
2019-03-27T04:12:18.238Z,99777.75
2019-03-27T04:14:52.217Z,99775.61
2019-03-27T04:17:24.245Z,99776.46
2019-03-27T04:19:58.054Z,99773.81
2019-03-27T04:22:30.490Z,99783.76
2019-03-27T04:25:03.272Z,99784.25
2019-03-27T04:27:36.546Z,99784.94
2019-03-27T04:30:10.620Z,99785.77
2019-03-27T04:32:44.751Z,99788.22
2019-03-27T04:35:19.664Z,99783.48
2019-03-27T04:37:56.228Z,99797.88
2019-03-27T04:40:30.441Z,99790.58
2019-03-27T04:43:03.403Z,99786.13
2019-03-27T04:45:36.290Z,99793.83
2019-03-27T04:48:08.571Z,99785.13
2019-03-27T04:50:42.392Z,99792.95
2019-03-27T04:53:16.380Z,99792.65
2019-03-27T04:55:48.818Z,99800.52
2019-03-27T04:58:21.440Z,99804.92
2019-03-27T05:00:53.533Z,99814.67
2019-03-27T05:03:27.495Z,99819.60
2019-03-27T05:06:01.506Z,99813.08
2019-03-27T05:08:33.375Z,99816.96
2019-03-27T05:11:06.427Z,99816.02
2019-03-27T05:13:41.720Z,99819.02
2019-03-27T05:16:16.210Z,99821.91
2019-03-27T05:18:50.543Z,99818.39
2019-03-27T05:21:24.483Z,99823.67
2019-03-27T05:23:56.511Z,99824.97
2019-03-27T05:26:30.572Z,99833.26
2019-03-27T05:29:04.697Z,99827.23
2019-03-27T05:31:39.388Z,99837.50
2019-03-27T05:34:12.641Z,99838.12
2019-03-27T05:36:46.715Z,99840.83
2019-03-27T05:39:20.738Z,99846.77
2019-03-27T05:41:53.717Z,99847.93
2019-03-27T05:44:30.080Z,99856.16
2019-03-27T05:47:02.343Z,99850.28
2019-03-27T05:49:36.670Z,99864.54
2019-03-27T05:52:08.593Z,99864.54
2019-03-27T05:54:42.732Z,99864.54
2019-03-27T05:57:15.741Z,99866.16
2019-03-27T05:59:48.773Z,99874.68
2019-03-27T06:02:20.789Z,99871.34
2019-03-27T06:04:55.574Z,99872.83
2019-03-27T06:07:27.794Z,99877.91
2019-03-27T06:09:59.962Z,99876.30
2019-03-27T06:12:34.381Z,99884.02
2019-03-27T06:15:08.190Z,99878.87
2019-03-27T06:17:41.889Z,99883.99
2019-03-27T06:20:15.086Z,99886.64
2019-03-27T06:22:48.901Z,99891.21
2019-03-27T06:25:21.481Z,99888.51
2019-03-27T06:27:55.064Z,99894.00
2019-03-27T06:30:28.770Z,99895.48
2019-03-27T06:33:02.884Z,99906.44
2019-03-27T06:35:36.902Z,99906.66
2019-03-27T06:38:10.701Z,99901.15
2019-03-27T06:40:43.898Z,99906.44
2019-03-27T06:43:16.314Z,99908.38
2019-03-27T06:45:48.916Z,99916.17
2019-03-27T06:48:26.415Z,99915.67
2019-03-27T06:50:58.047Z,99914.79
2019-03-27T06:53:30.975Z,99917.87
2019-03-27T06:56:04.199Z,99921.78
2019-03-27T06:58:53.589Z,99921.42
2019-03-27T07:01:15.972Z,99922.84
2019-03-27T07:03:49.926Z,99925.63
2019-03-27T07:06:21.811Z,99925.92
2019-03-27T07:08:54.953Z,99924.91
2019-03-27T07:11:27.987Z,99924.15
2019-03-27T07:14:00.983Z,99919.68
2019-03-27T07:16:34.071Z,99929.38
2019-03-27T07:19:07.116Z,99931.63
2019-03-27T07:21:39.450Z,99931.56
2019-03-27T07:24:12.784Z,99937.41
2019-03-27T07:26:46.165Z,99937.18
2019-03-27T07:29:22.715Z,99937.16
2019-03-27T07:31:55.110Z,99941.23
2019-03-27T07:34:28.080Z,99939.70
2019-03-27T07:37:00.061Z,99942.36
2019-03-27T07:39:35.272Z,99941.87
2019-03-27T07:42:09.249Z,99947.53
2019-03-27T07:44:42.210Z,99958.92
2019-03-27T07:47:17.624Z,99956.66
2019-03-27T07:49:52.169Z,99956.70
2019-03-27T07:52:25.397Z,99954.13
2019-03-27T07:54:58.285Z,99958.36
2019-03-27T07:57:33.184Z,99962.80
2019-03-27T08:00:07.843Z,99960.52
2019-03-27T08:02:41.206Z,99960.39
2019-03-27T08:05:23.853Z,99964.33
2019-03-27T08:08:03.280Z,99960.39
2019-03-27T08:10:37.459Z,99962.17
2019-03-27T08:13:10.310Z,99959.92
2019-03-27T08:15:44.058Z,99959.22
2019-03-27T08:18:24.171Z,99964.48
2019-03-27T08:20:59.218Z,99970.36
2019-03-27T08:23:31.976Z,99968.78
2019-03-27T08:26:06.045Z,99964.44
2019-03-27T08:28:40.516Z,99965.35
2019-03-27T08:31:14.353Z,99964.92
2019-03-27T08:33:46.470Z,99764.08
2019-03-27T08:36:25.435Z,99966.07
2019-03-27T08:38:57.561Z,99972.23
2019-03-27T08:41:34.371Z,99983.34
2019-03-27T08:44:08.417Z,99984.52
2019-03-27T08:46:42.102Z,99985.17
2019-03-27T08:49:21.819Z,99985.41
2019-03-27T08:51:49.707Z,99980.96
2019-03-27T08:54:26.284Z,99981.08
2019-03-27T08:56:59.027Z,99982.14
2019-03-27T08:59:31.956Z,99981.43
2019-03-27T09:02:04.645Z,99987.86
2019-03-27T09:04:37.682Z,99979.72
2019-03-27T09:07:10.759Z,99988.57
2019-03-27T09:09:44.243Z,99990.57
2019-03-27T09:12:19.247Z,99990.57
2019-03-27T09:14:56.997Z,99991.69
2019-03-27T09:17:30.593Z,99990.53
2019-03-27T09:20:03.603Z,99992.25
2019-03-27T09:22:38.026Z,99992.25
2019-03-27T09:25:14.713Z,99987.97
2019-03-27T09:27:47.560Z,99994.84
2019-03-27T09:30:20.340Z,100000.98
2019-03-27T09:32:54.512Z,99997.05
2019-03-27T09:35:32.761Z,99999.83
2019-03-27T09:38:04.845Z,99996.01
2019-03-27T09:40:41.874Z,99999.44
2019-03-27T09:43:15.723Z,99999.88
2019-03-27T09:45:49.780Z,100002.98
2019-03-27T09:48:21.754Z,100007.51
2019-03-27T09:50:56.725Z,100008.23
2019-03-27T09:53:30.668Z,100001.97
2019-03-27T09:56:18.099Z,100006.39
2019-03-27T09:58:42.709Z,100003.70
2019-03-27T10:01:16.734Z,100001.38
2019-03-27T10:03:53.994Z,100005.88
2019-03-27T10:06:33.523Z,100004.39
2019-03-27T10:09:20.901Z,100007.41
2019-03-27T10:12:01.044Z,100000.88
2019-03-27T10:14:43.643Z,100004.25
2019-03-27T10:17:37.011Z,100005.38
2019-03-27T10:20:16.427Z,100006.81
2019-03-27T10:22:51.692Z,99996.66
2019-03-27T10:25:32.318Z,100002.63
2019-03-27T10:28:15.567Z,100009.87
2019-03-27T10:30:52.473Z,100006.37
2019-03-27T10:33:28.313Z,100004.95
2019-03-27T10:36:04.851Z,100008.44
2019-03-27T10:38:41.587Z,100007.11
2019-03-27T10:41:26.181Z,100000.55
2019-03-27T10:44:01.201Z,99997.84
2019-03-27T10:46:36.586Z,99994.86
2019-03-27T10:49:12.222Z,99992.97
2019-03-27T10:51:48.833Z,99987.73
2019-03-27T10:54:22.736Z,99987.05
2019-03-27T10:57:01.123Z,99984.84
2019-03-27T10:59:40.315Z,99981.27
2019-03-27T11:02:12.964Z,99976.23
2019-03-27T11:04:53.546Z,99979.16
2019-03-27T11:07:26.943Z,99926.31
2019-03-27T11:09:59.916Z,99982.50
2019-03-27T11:12:34.210Z,99982.04
2019-03-27T11:15:29.557Z,99989.28
2019-03-27T11:18:04.961Z,99984.19
2019-03-27T11:20:37.311Z,99988.38
2019-03-27T11:23:11.589Z,99990.42
2019-03-27T11:25:47.726Z,100002.45
2019-03-27T11:28:21.688Z,99998.34
2019-03-27T11:30:57.271Z,100008.62
2019-03-27T11:33:31.118Z,100005.21
2019-03-27T11:36:03.175Z,100006.89
2019-03-27T11:38:37.822Z,100007.86
2019-03-27T11:41:12.367Z,100008.23
2019-03-27T11:43:55.156Z,100006.48
2019-03-27T11:46:25.193Z,100013.02
2019-03-27T11:48:58.145Z,100011.01
2019-03-27T11:51:31.235Z,100006.70
2019-03-27T11:54:05.322Z,100020.54
2019-03-27T11:56:40.241Z,100018.05
2019-03-27T11:59:13.366Z,100021.80
2019-03-27T12:01:46.332Z,100014.83
2019-03-27T12:04:19.581Z,100008.02
2019-03-27T12:06:52.402Z,100007.09
2019-03-27T12:09:25.424Z,99998.28
2019-03-27T12:11:58.180Z,99994.95
2019-03-27T12:14:31.282Z,99985.47
2019-03-27T12:17:04.393Z,99987.59
2019-03-27T12:19:38.004Z,99984.87
2019-03-27T12:22:14.324Z,99988.06
2019-03-27T12:24:46.444Z,99991.27
2019-03-27T12:27:22.310Z,99991.91
2019-03-27T12:29:58.022Z,99980.05
2019-03-27T12:32:31.406Z,99981.91
2019-03-27T12:35:04.471Z,99980.11
2019-03-27T12:37:38.421Z,99981.43
2019-03-27T12:40:11.773Z,99981.23
2019-03-27T12:42:46.534Z,99983.30
2019-03-27T12:45:19.501Z,99983.86
2019-03-27T12:47:52.512Z,99987.88
2019-03-27T12:50:25.419Z,99987.77
2019-03-27T12:52:57.503Z,99980.99
2019-03-27T12:55:37.599Z,99989.81
2019-03-27T12:58:18.190Z,99984.68
2019-03-27T13:00:53.830Z,99988.39
2019-03-27T13:03:33.764Z,99984.98
2019-03-27T13:06:15.999Z,99982.64
2019-03-27T13:08:56.911Z,99982.53
2019-03-27T13:11:36.746Z,99978.14
2019-03-27T13:14:14.368Z,99982.44
2019-03-27T13:16:52.297Z,99976.61
2019-03-27T13:19:26.316Z,99982.38
2019-03-27T13:21:59.008Z,99982.07
2019-03-27T13:24:31.698Z,99977.55
2019-03-27T13:27:04.863Z,99981.33
2019-03-27T13:29:38.702Z,99980.16
2019-03-27T13:32:12.591Z,99981.48
2019-03-27T13:34:47.096Z,99975.02
2019-03-27T13:37:21.881Z,99971.94
2019-03-27T13:39:53.889Z,99976.11
2019-03-27T13:42:29.058Z,99966.30
2019-03-27T13:45:01.952Z,99966.83
2019-03-27T13:47:34.761Z,99968.19
2019-03-27T13:50:12.696Z,99974.62
2019-03-27T13:52:48.588Z,99975.55
2019-03-27T13:55:21.129Z,99978.67
2019-03-27T13:57:55.853Z,99979.17
2019-03-27T14:00:28.719Z,99981.75
2019-03-27T14:03:02.757Z,99982.38
2019-03-27T14:05:34.907Z,99971.64
2019-03-27T14:08:07.821Z,99973.41
2019-03-27T14:10:41.122Z,99976.08
2019-03-27T14:13:18.318Z,99976.59
2019-03-27T14:15:54.150Z,99974.45
2019-03-27T14:18:31.026Z,99972.62
2019-03-27T14:21:06.153Z,99977.13
2019-03-27T14:23:40.882Z,99979.57
2019-03-27T14:26:13.863Z,99981.32
2019-03-27T14:28:47.260Z,99986.14
2019-03-27T14:31:19.915Z,99982.55
2019-03-27T14:33:53.774Z,99983.25
2019-03-27T14:36:25.648Z,99980.59
2019-03-27T14:38:58.880Z,99983.69
2019-03-27T14:41:32.009Z,99979.22
2019-03-27T14:44:04.912Z,99979.22
2019-03-27T14:46:37.860Z,99986.50
2019-03-27T14:49:10.072Z,99987.70
2019-03-27T14:51:45.695Z,99988.72
2019-03-27T14:54:19.923Z,99985.95
2019-03-27T14:56:53.019Z,99985.52
2019-03-27T14:59:24.940Z,99991.97
2019-03-27T15:02:00.011Z,99986.91
2019-03-27T15:04:31.809Z,99985.98
2019-03-27T15:07:04.863Z,99987.17
2019-03-27T15:09:37.943Z,99984.22
2019-03-27T15:12:12.185Z,99986.23
2019-03-27T15:14:45.998Z,99988.78
2019-03-27T15:17:18.377Z,99990.07
2019-03-27T15:19:53.005Z,99993.84
2019-03-27T15:22:27.041Z,99994.95
2019-03-27T15:25:01.004Z,99996.50
2019-03-27T15:27:35.109Z,99999.73
2019-03-27T15:30:12.553Z,100001.21
2019-03-27T15:32:43.033Z,99997.72
2019-03-27T15:35:15.440Z,99993.07
2019-03-27T15:37:49.588Z,100003.27
2019-03-27T15:40:40.245Z,99996.01
2019-03-27T15:43:12.399Z,99989.87
2019-03-27T15:45:45.061Z,99985.10
2019-03-27T15:48:19.798Z,99996.23
2019-03-27T15:50:58.458Z,99993.07
2019-03-27T15:53:28.162Z,99994.19
2019-03-27T15:56:00.299Z,99996.84
2019-03-27T15:58:34.294Z,99995.23
2019-03-27T16:01:08.226Z,99987.05
2019-03-27T16:03:40.278Z,99994.19
2019-03-27T16:06:13.249Z,99996.23
2019-03-27T16:08:46.254Z,99993.46
2019-03-27T16:11:18.995Z,100000.50
2019-03-27T16:13:53.408Z,100002.00
2019-03-27T16:16:25.301Z,100001.09
2019-03-27T16:18:57.852Z,99996.58
2019-03-27T16:21:31.563Z,99991.48
2019-03-27T16:24:06.687Z,99993.52
2019-03-27T16:26:40.397Z,100000.05
2019-03-27T16:29:13.924Z,100000.55
2019-03-27T16:31:47.175Z,99891.19
2019-03-27T16:34:19.807Z,99999.63
2019-03-27T16:36:54.218Z,100003.75
2019-03-27T16:39:28.271Z,100011.41
2019-03-27T16:42:02.346Z,100010.47
2019-03-27T16:44:34.350Z,100013.51
2019-03-27T16:47:08.576Z,100013.89
2019-03-27T16:49:40.438Z,100012.56
2019-03-27T16:52:13.573Z,100007.34
2019-03-27T16:54:46.480Z,100015.70
2019-03-27T16:57:20.491Z,100012.61
2019-03-27T16:59:52.322Z,100017.48
2019-03-27T17:02:25.419Z,100022.17
2019-03-27T17:04:59.346Z,100019.72
2019-03-27T17:07:32.646Z,100021.44
2019-03-27T17:10:04.984Z,100029.91
2019-03-27T17:12:37.571Z,100025.48
2019-03-27T17:15:10.729Z,100034.89
2019-03-27T17:17:43.521Z,100028.34
2019-03-27T17:20:17.173Z,100035.16
2019-03-27T17:22:49.469Z,100032.00
2019-03-27T17:25:22.174Z,100026.36
2019-03-27T17:27:56.024Z,100035.04
2019-03-27T17:30:31.788Z,100027.40
2019-03-27T17:33:04.561Z,100030.61
2019-03-27T17:35:37.628Z,100036.52
2019-03-27T17:38:11.080Z,100040.17
2019-03-27T17:40:43.674Z,100033.53
2019-03-27T17:43:16.513Z,100035.23
2019-03-27T17:45:49.735Z,100037.27
2019-03-27T17:48:22.309Z,100042.08
2019-03-27T17:50:54.888Z,100038.86
2019-03-27T17:53:31.807Z,100042.13
2019-03-27T17:56:04.720Z,100045.00
2019-03-27T17:58:37.715Z,100051.84
2019-03-27T18:01:09.563Z,100046.70
2019-03-27T18:03:43.759Z,100043.10
2019-03-27T18:06:16.962Z,100050.06
2019-03-27T18:08:49.745Z,100048.86
2019-03-27T18:11:22.641Z,100051.30
2019-03-27T18:13:55.733Z,100054.62
2019-03-27T18:16:28.817Z,100054.62
2019-03-27T18:19:01.748Z,100057.89
2019-03-27T18:21:34.685Z,100057.56
2019-03-27T18:24:07.778Z,100057.94
2019-03-27T18:26:42.742Z,100067.56
2019-03-27T18:29:17.112Z,100076.02
2019-03-27T18:31:49.398Z,100075.85
2019-03-27T18:34:22.355Z,100081.08
2019-03-27T18:36:56.022Z,100084.23
2019-03-27T18:39:28.881Z,100086.09
2019-03-27T18:42:01.666Z,100086.09
2019-03-27T18:44:34.826Z,100090.81
2019-03-27T18:47:07.953Z,100093.65
2019-03-27T18:49:40.931Z,100099.54
2019-03-27T18:52:13.941Z,100097.77
2019-03-27T18:54:46.943Z,100107.96
2019-03-27T18:57:20.102Z,100108.84
2019-03-27T18:59:52.878Z,100111.87
2019-03-27T19:02:25.925Z,100107.55
2019-03-27T19:04:58.976Z,100114.89
2019-03-27T19:07:32.035Z,100115.89
2019-03-27T19:10:04.102Z,100114.56
2019-03-27T19:12:37.983Z,100115.59
2019-03-27T19:15:12.332Z,100115.22
2019-03-27T19:17:46.058Z,100119.20
2019-03-27T19:20:20.326Z,100114.72
2019-03-27T19:22:52.407Z,100121.03
2019-03-27T19:25:26.036Z,100120.91
2019-03-27T19:28:00.062Z,100120.58
2019-03-27T19:30:32.395Z,100123.44
2019-03-27T19:33:05.409Z,100127.91
2019-03-27T19:35:38.302Z,100123.10
2019-03-27T19:38:11.299Z,100125.63
2019-03-27T19:40:44.266Z,100130.94
2019-03-27T19:43:18.299Z,100129.94
2019-03-27T19:45:57.534Z,100128.28
2019-03-27T19:48:31.206Z,100126.62
2019-03-27T19:51:05.547Z,100131.44
2019-03-27T19:53:39.346Z,100136.50
2019-03-27T19:56:11.245Z,100129.94
2019-03-27T19:58:44.280Z,100140.43
2019-03-27T20:01:17.349Z,100138.27
2019-03-27T20:03:50.320Z,100141.09
2019-03-27T20:06:22.450Z,100142.92
2019-03-27T20:08:56.973Z,100142.25
2019-03-27T20:11:31.156Z,100137.24
2019-03-27T20:14:05.525Z,100141.55
2019-03-27T20:16:39.444Z,100144.83
2019-03-27T20:19:13.748Z,100140.98
2019-03-27T20:21:47.324Z,100127.12
2019-03-27T20:24:24.443Z,100156.91
2019-03-27T20:26:56.546Z,100157.44
2019-03-27T20:29:29.371Z,100156.28
2019-03-27T20:32:02.363Z,100154.95
2019-03-27T20:34:36.474Z,100152.80
2019-03-27T20:37:09.920Z,100148.81
2019-03-27T20:39:46.269Z,100147.69
2019-03-27T20:42:22.307Z,100153.16
2019-03-27T20:44:56.936Z,100145.20
2019-03-27T20:47:29.573Z,100143.58
2019-03-27T20:50:03.569Z,100139.27
2019-03-27T20:52:35.510Z,100139.47
2019-03-27T20:55:08.831Z,100134.04
2019-03-27T20:57:41.339Z,100141.80
2019-03-27T21:00:15.868Z,100151.58
2019-03-27T21:02:49.545Z,100156.06
2019-03-27T21:05:22.562Z,100154.31
2019-03-27T21:07:56.603Z,100156.14
2019-03-27T21:10:28.426Z,100156.64
2019-03-27T21:13:02.615Z,100153.98
2019-03-27T21:15:34.430Z,100153.66
2019-03-27T21:18:08.599Z,100156.64
2019-03-27T21:20:40.642Z,100151.53
2019-03-27T21:23:14.309Z,100158.95
2019-03-27T21:25:46.503Z,100158.33
2019-03-27T21:28:19.488Z,100151.70
2019-03-27T21:30:52.564Z,100157.83
2019-03-27T21:33:25.598Z,100151.37
2019-03-27T21:35:59.513Z,100155.34
2019-03-27T21:38:32.866Z,100145.89
2019-03-27T21:41:08.396Z,100155.51
2019-03-27T21:43:40.767Z,100159.66
2019-03-27T21:46:13.579Z,100152.69
2019-03-27T21:48:47.689Z,100148.09
2019-03-27T21:51:20.592Z,100152.56
2019-03-27T21:53:52.814Z,100158.07
2019-03-27T21:56:25.723Z,100163.05
2019-03-27T21:59:02.556Z,100167.02
2019-03-27T22:01:34.852Z,100165.41
2019-03-27T22:04:09.729Z,100165.08
2019-03-27T22:06:43.744Z,100165.27
2019-03-27T22:09:16.735Z,100169.42
2019-03-27T22:11:51.280Z,100170.75
2019-03-27T22:14:23.167Z,100173.06
2019-03-27T22:16:56.800Z,100173.06
2019-03-27T22:19:28.886Z,100173.27
2019-03-27T22:22:02.952Z,100171.11
2019-03-27T22:24:35.857Z,100175.79
2019-03-27T22:27:07.889Z,100174.13
2019-03-27T22:29:41.757Z,100176.78
2019-03-27T22:32:14.878Z,100179.14
2019-03-27T22:34:46.864Z,100175.95
2019-03-27T22:37:21.255Z,100172.30
2019-03-27T22:39:54.815Z,100165.18
2019-03-27T22:42:28.998Z,100173.47
2019-03-27T22:45:00.913Z,100171.81
2019-03-27T22:47:34.975Z,100162.03
2019-03-27T22:50:09.109Z,100155.89
2019-03-27T22:52:44.016Z,100162.33
2019-03-27T22:55:17.585Z,100154.70
2019-03-27T22:57:52.342Z,100160.83
2019-03-27T23:00:53.926Z,100158.48
2019-03-27T23:03:26.050Z,100160.13
2019-03-27T23:05:59.145Z,100157.81
2019-03-27T23:08:32.034Z,100163.12
2019-03-27T23:11:05.540Z,100164.61
2019-03-27T23:13:38.947Z,100170.58
2019-03-27T23:16:13.133Z,100167.59
2019-03-27T23:18:46.974Z,100167.73
2019-03-27T23:21:21.652Z,100168.42
2019-03-27T23:23:56.120Z,100161.80
2019-03-27T23:26:29.444Z,100161.80
2019-03-27T23:29:02.227Z,100153.00
2019-03-27T23:31:35.158Z,100163.12
2019-03-27T23:34:08.459Z,100167.09
2019-03-27T23:36:41.134Z,100158.81
2019-03-27T23:39:13.328Z,100157.16
2019-03-27T23:41:48.120Z,100163.78
2019-03-27T23:44:20.430Z,100162.45
2019-03-27T23:46:54.336Z,100163.28
2019-03-27T23:49:29.199Z,100159.80
2019-03-27T23:52:03.240Z,100165.94
2019-03-27T23:54:35.255Z,100164.81
2019-03-27T23:57:08.334Z,100167.59
2019-03-27T23:59:43.308Z,100171.91
